Aviation Digital Data Service (ADDS)

Output produced by METARs form (1726 UTC 03 June 2020)
found at http://www.aviationweather.gov/metar/data/
 
Forecast for: VYYY (YANGON INTL MYAN, VN)
Text: TAF VYYY 031100Z 0312/0412 26005KT 7000 BKN015 FEW020CB BKN100
Forecast period: 1200 UTC 03 June 2020 to 1200 UTC 04 June 2020
Forecast type: FROM: standard forecast or significant change
Winds: from the W (260 degrees) at 6 MPH (5 knots; 2.6 m/s)
Visibility: 4 miles (7 km)
Ceiling: 1500 feet AGL
Clouds: broken clouds at 1500 feet AGL
few clouds at 2000 feet AGL
broken clouds at 10000 feet AGL
Weather: no significant weather forecast for this period
Text: TEMPO 0312/0318 22008KT 5000 -TSRA BKN010 FEW015CB BKN100
Forecast period: 1200 to 1800 UTC 03 June 2020
Forecast type: TEMPORARY: The following changes expected for less than half the time period
Winds: from the SW (220 degrees) at 9 MPH (8 knots; 4.1 m/s)
Visibility: 3 miles (5 km)
Ceiling: 1000 feet AGL
Clouds: broken clouds at 1000 feet AGL
few clouds at 1500 feet AGL
broken clouds at 10000 feet AGL
Weather: -TSRA  (light rain associated with thunderstorm(s))